createdAt,value
2022-08-03T00:01:35.736Z,100.00
2022-08-03T00:04:03.632Z,100.00
2022-08-03T00:06:36.963Z,100.00
2022-08-03T00:09:06.134Z,100.00
2022-08-03T00:11:34.142Z,100.00
2022-08-03T00:14:02.255Z,100.00
2022-08-03T00:16:30.307Z,100.00
2022-08-03T00:18:58.196Z,100.00
2022-08-03T00:21:29.851Z,100.00
2022-08-03T00:23:59.101Z,100.00
2022-08-03T00:26:26.927Z,100.00
2022-08-03T00:28:54.804Z,100.00
2022-08-03T00:31:40.051Z,100.00
2022-08-03T00:34:10.531Z,100.00
2022-08-03T00:36:40.415Z,100.00
2022-08-03T00:39:10.167Z,100.00
2022-08-03T00:41:37.997Z,100.00
2022-08-03T00:44:06.079Z,100.00
2022-08-03T00:46:33.901Z,100.00
2022-08-03T00:49:02.125Z,100.00
2022-08-03T00:51:30.024Z,100.00
2022-08-03T00:53:57.815Z,100.00
2022-08-03T00:56:27.791Z,100.00
2022-08-03T00:58:58.802Z,100.00
2022-08-03T01:01:26.686Z,100.00
2022-08-03T01:04:00.580Z,100.00
2022-08-03T01:06:35.281Z,100.00
2022-08-03T01:09:10.781Z,100.00
2022-08-03T01:12:00.126Z,100.00
2022-08-03T01:14:35.126Z,100.00
2022-08-03T01:17:11.266Z,100.00
2022-08-03T01:19:50.712Z,100.00
2022-08-03T01:22:46.143Z,100.00
2022-08-03T01:25:25.893Z,100.00
2022-08-03T01:28:10.901Z,100.00
2022-08-03T01:30:44.860Z,100.00
2022-08-03T01:33:16.827Z,100.00
2022-08-03T01:35:48.592Z,100.00
2022-08-03T01:38:21.490Z,100.00
2022-08-03T01:40:52.452Z,100.00
2022-08-03T01:44:27.759Z,100.00
2022-08-03T01:46:15.475Z,100.00
2022-08-03T01:48:45.892Z,100.00
2022-08-03T01:51:16.750Z,100.00
2022-08-03T01:53:45.687Z,100.00
2022-08-03T01:56:15.128Z,100.00
2022-08-03T01:58:44.920Z,100.00
2022-08-03T02:01:17.030Z,100.00
2022-08-03T02:03:58.058Z,100.00
2022-08-03T02:07:00.488Z,100.00
2022-08-03T02:09:19.067Z,100.00
2022-08-03T02:11:48.540Z,100.00
2022-08-03T02:14:18.560Z,100.00
2022-08-03T02:16:50.262Z,100.00
2022-08-03T02:19:20.549Z,100.00
2022-08-03T02:21:57.271Z,100.00
2022-08-03T02:24:29.695Z,100.00
2022-08-03T02:26:59.320Z,100.00
2022-08-03T02:29:39.417Z,100.00
2022-08-03T02:32:11.682Z,100.00
2022-08-03T02:34:41.116Z,100.00
2022-08-03T02:37:11.698Z,100.00
2022-08-03T02:39:42.151Z,100.00
2022-08-03T02:42:12.206Z,100.00
2022-08-03T02:44:43.792Z,100.00
2022-08-03T02:47:15.560Z,100.00
2022-08-03T02:49:51.504Z,100.00
2022-08-03T02:52:23.374Z,100.00
2022-08-03T02:54:54.637Z,100.00
2022-08-03T02:57:23.925Z,100.00
2022-08-03T02:59:53.049Z,100.00
2022-08-03T03:02:22.543Z,100.00
2022-08-03T03:05:50.533Z,100.00
2022-08-03T03:07:51.463Z,100.00
2022-08-03T03:10:20.835Z,100.00
2022-08-03T03:12:51.429Z,100.00
2022-08-03T03:15:19.367Z,100.00
2022-08-03T03:17:49.705Z,100.00
2022-08-03T03:20:29.544Z,100.00
2022-08-03T03:22:59.847Z,100.00
2022-08-03T03:25:29.267Z,100.00
2022-08-03T03:27:57.827Z,100.00
2022-08-03T03:30:26.166Z,100.00
2022-08-03T03:32:55.688Z,100.00
2022-08-03T03:35:23.656Z,100.00
2022-08-03T03:37:51.497Z,100.00
2022-08-03T03:40:19.520Z,100.00
2022-08-03T03:42:47.609Z,100.00
2022-08-03T03:45:16.928Z,100.00
2022-08-03T03:47:44.766Z,100.00
2022-08-03T03:50:14.564Z,100.00
2022-08-03T03:52:42.463Z,100.00
2022-08-03T03:55:10.680Z,100.00
2022-08-03T03:57:38.472Z,100.00
2022-08-03T04:00:07.749Z,100.00
2022-08-03T04:02:35.771Z,100.00
2022-08-03T04:05:20.824Z,100.00
2022-08-03T04:08:16.875Z,100.00
2022-08-03T04:11:01.818Z,100.00
2022-08-03T04:13:33.575Z,100.00
2022-08-03T04:16:03.044Z,100.00
2022-08-03T04:18:33.775Z,100.00
2022-08-03T04:21:05.296Z,100.00
2022-08-03T04:23:36.751Z,100.00
2022-08-03T04:26:09.656Z,100.00
2022-08-03T04:28:39.822Z,100.00
2022-08-03T04:31:08.281Z,100.00
2022-08-03T04:33:39.597Z,100.00
2022-08-03T04:36:09.883Z,100.00
2022-08-03T04:38:45.223Z,100.00
2022-08-03T04:41:14.046Z,100.00
2022-08-03T04:43:42.188Z,100.00
2022-08-03T04:46:11.351Z,100.00
2022-08-03T04:48:44.364Z,100.00
2022-08-03T04:51:12.983Z,100.00
2022-08-03T04:53:42.120Z,100.00
2022-08-03T04:56:10.098Z,100.00
2022-08-03T04:58:37.882Z,100.00
2022-08-03T05:01:05.948Z,100.00
2022-08-03T05:03:33.751Z,100.00
2022-08-03T05:06:11.008Z,100.00
2022-08-03T05:08:46.104Z,100.00
2022-08-03T05:11:16.391Z,100.00
2022-08-03T05:13:44.162Z,100.00
2022-08-03T05:16:12.098Z,100.00
2022-08-03T05:18:39.835Z,100.00
2022-08-03T05:21:07.839Z,100.00
2022-08-03T05:23:35.716Z,100.00
2022-08-03T05:26:03.470Z,100.00
2022-08-03T05:28:32.976Z,100.00
2022-08-03T05:31:00.773Z,100.00
2022-08-03T05:33:28.735Z,100.00
2022-08-03T05:36:03.309Z,100.00
2022-08-03T05:38:33.908Z,100.00
2022-08-03T05:41:21.324Z,100.00
2022-08-03T05:43:52.824Z,100.00
2022-08-03T05:46:21.152Z,100.00
2022-08-03T05:48:49.261Z,100.00
2022-08-03T05:51:17.119Z,100.00
2022-08-03T05:53:45.821Z,100.00
2022-08-03T05:56:16.234Z,100.00
2022-08-03T05:58:45.559Z,100.00
2022-08-03T06:01:15.264Z,100.00
2022-08-03T06:03:43.228Z,97.16
2022-08-03T06:06:11.754Z,92.68
2022-08-03T06:08:39.947Z,96.99
2022-08-03T06:11:07.838Z,91.82
2022-08-03T06:13:36.267Z,90.44
2022-08-03T06:16:04.439Z,85.79
2022-08-03T06:18:33.683Z,88.13
2022-08-03T06:21:14.724Z,89.34
2022-08-03T06:23:52.632Z,86.72
2022-08-03T06:26:21.867Z,86.95
2022-08-03T06:28:53.368Z,82.88
2022-08-03T06:31:22.871Z,82.01
2022-08-03T06:34:31.186Z,79.22
2022-08-03T06:36:40.078Z,80.44
2022-08-03T06:39:08.294Z,79.60
2022-08-03T06:41:37.530Z,81.44
2022-08-03T06:44:06.249Z,78.06
2022-08-03T06:46:34.120Z,77.94
2022-08-03T06:49:03.486Z,75.09
2022-08-03T06:52:03.823Z,77.52
2022-08-03T06:54:19.452Z,75.99
2022-08-03T06:56:47.233Z,74.63
2022-08-03T07:00:06.346Z,75.08
2022-08-03T07:02:02.899Z,75.55
2022-08-03T07:04:32.088Z,74.44
2022-08-03T07:06:59.945Z,75.40
2022-08-03T07:09:28.126Z,71.80
2022-08-03T07:11:57.092Z,73.11
2022-08-03T07:14:24.916Z,72.14
2022-08-03T07:16:52.805Z,73.44
2022-08-03T07:19:20.616Z,69.40
2022-08-03T07:21:49.826Z,69.94
2022-08-03T07:24:21.859Z,70.54
2022-08-03T07:26:49.707Z,69.04
2022-08-03T07:29:17.636Z,68.26
2022-08-03T07:31:45.871Z,68.47
2022-08-03T07:34:13.723Z,69.28
2022-08-03T07:36:41.569Z,70.11
2022-08-03T07:39:15.764Z,67.00
2022-08-03T07:41:46.117Z,69.42
2022-08-03T07:44:13.991Z,64.84
2022-08-03T07:46:41.836Z,64.48
2022-08-03T07:49:09.898Z,66.72
2022-08-03T07:51:37.932Z,64.39
2022-08-03T07:54:05.941Z,60.85
2022-08-03T07:56:35.211Z,64.35
2022-08-03T07:59:03.282Z,62.12
2022-08-03T08:01:33.031Z,63.42
2022-08-03T08:04:00.824Z,64.18
2022-08-03T08:06:28.629Z,62.18
2022-08-03T08:08:59.645Z,61.22
2022-08-03T08:11:27.452Z,62.19
2022-08-03T08:13:56.665Z,61.69
2022-08-03T08:16:24.537Z,60.87
2022-08-03T08:18:52.338Z,57.86
2022-08-03T08:21:20.530Z,59.56
2022-08-03T08:23:55.641Z,59.16
2022-08-03T08:26:25.717Z,61.10
2022-08-03T08:28:53.637Z,57.17
2022-08-03T08:31:22.861Z,58.44
2022-08-03T08:34:06.175Z,58.61
2022-08-03T08:36:34.593Z,54.94
2022-08-03T08:39:03.125Z,53.04
2022-08-03T08:41:33.767Z,55.01
2022-08-03T08:44:01.923Z,57.34
2022-08-03T08:46:33.925Z,56.34
2022-08-03T08:49:04.544Z,53.51
2022-08-03T08:51:59.296Z,53.75
2022-08-03T08:54:27.016Z,58.58
2022-08-03T08:56:59.275Z,51.86
2022-08-03T08:59:48.454Z,54.45
2022-08-03T09:02:19.109Z,51.28
2022-08-03T09:04:48.866Z,52.20
2022-08-03T09:07:20.442Z,50.54
2022-08-03T09:10:11.727Z,51.12
2022-08-03T09:12:42.473Z,51.25
2022-08-03T09:15:22.454Z,50.35
2022-08-03T09:17:53.543Z,51.42
2022-08-03T09:20:23.442Z,52.10
2022-08-03T09:22:59.268Z,50.18
2022-08-03T09:25:31.873Z,52.50
2022-08-03T09:28:08.613Z,49.32
2022-08-03T09:30:36.952Z,47.24
2022-08-03T09:33:09.148Z,50.58
2022-08-03T09:35:58.502Z,50.19
2022-08-03T09:38:27.544Z,49.89
2022-08-03T09:41:00.034Z,49.51
2022-08-03T09:43:28.912Z,47.68
2022-08-03T09:46:04.637Z,51.51
2022-08-03T09:48:35.094Z,48.74
2022-08-03T09:51:13.100Z,49.43
2022-08-03T09:53:59.255Z,47.36
2022-08-03T09:56:42.751Z,46.97
2022-08-03T09:59:11.593Z,48.62
2022-08-03T10:01:41.848Z,47.64
2022-08-03T10:04:17.007Z,45.96
2022-08-03T10:06:45.826Z,45.81
2022-08-03T10:09:17.215Z,46.03
2022-08-03T10:11:46.896Z,45.48
2022-08-03T10:14:19.355Z,45.04
2022-08-03T10:16:48.882Z,44.32
2022-08-03T10:19:18.459Z,44.71
2022-08-03T10:21:51.086Z,43.61
2022-08-03T10:24:25.827Z,44.18
2022-08-03T10:26:58.142Z,45.82
2022-08-03T10:29:29.308Z,44.76
2022-08-03T10:32:00.063Z,44.63
2022-08-03T10:34:36.134Z,43.20
2022-08-03T10:37:09.171Z,42.03
2022-08-03T10:39:37.376Z,40.53
2022-08-03T10:42:14.724Z,43.43
2022-08-03T10:44:43.473Z,41.32
2022-08-03T10:47:12.376Z,43.65
2022-08-03T10:49:42.580Z,43.32
2022-08-03T10:52:13.393Z,43.79
2022-08-03T10:55:16.321Z,41.56
2022-08-03T10:57:49.775Z,43.74
2022-08-03T11:00:19.639Z,43.04
2022-08-03T11:03:10.937Z,43.76
2022-08-03T11:05:42.447Z,41.91
2022-08-03T11:08:31.065Z,39.61
2022-08-03T11:11:01.813Z,42.02
2022-08-03T11:13:33.910Z,40.09
2022-08-03T11:16:07.176Z,41.32
2022-08-03T11:18:37.572Z,42.10
2022-08-03T11:21:06.777Z,41.05
2022-08-03T11:24:04.362Z,43.01
2022-08-03T11:26:34.382Z,39.28
2022-08-03T11:29:29.741Z,40.39
2022-08-03T11:31:58.031Z,39.60
2022-08-03T11:34:26.096Z,43.05
2022-08-03T11:37:28.786Z,40.82
2022-08-03T11:39:57.889Z,40.41
2022-08-03T11:42:47.943Z,41.20
2022-08-03T11:45:15.871Z,40.26
2022-08-03T11:47:50.639Z,39.70
2022-08-03T11:50:21.532Z,36.40
2022-08-03T11:52:51.039Z,39.45
2022-08-03T11:55:22.426Z,38.41
2022-08-03T11:59:17.557Z,36.91
2022-08-03T12:00:38.849Z,37.49
2022-08-03T12:03:09.263Z,37.67
2022-08-03T12:05:50.998Z,41.39
2022-08-03T12:08:32.444Z,36.88
2022-08-03T12:11:02.346Z,40.77
2022-08-03T12:13:56.618Z,38.16
2022-08-03T12:16:29.674Z,35.32
2022-08-03T12:18:58.779Z,37.57
2022-08-03T12:21:26.735Z,34.58
2022-08-03T12:24:00.559Z,38.27
2022-08-03T12:26:29.548Z,37.18
2022-08-03T12:28:57.789Z,37.96
2022-08-03T12:31:25.999Z,35.55
2022-08-03T12:33:59.350Z,33.05
2022-08-03T12:36:27.919Z,36.60
2022-08-03T12:38:59.176Z,39.14
2022-08-03T12:41:34.088Z,35.09
2022-08-03T12:44:03.692Z,34.11
2022-08-03T12:46:33.385Z,35.40
2022-08-03T12:49:03.594Z,36.48
2022-08-03T12:51:33.101Z,35.13
2022-08-03T12:54:02.638Z,35.37
2022-08-03T12:56:30.557Z,40.88
2022-08-03T12:58:58.380Z,36.78
2022-08-03T13:01:27.930Z,33.94
2022-08-03T13:03:55.798Z,34.96
2022-08-03T13:06:26.471Z,37.34
2022-08-03T13:09:06.781Z,35.79
2022-08-03T13:11:53.456Z,35.21
2022-08-03T13:14:23.824Z,36.12
2022-08-03T13:16:52.082Z,34.25
2022-08-03T13:19:19.944Z,33.88
2022-08-03T13:22:01.866Z,34.84
2022-08-03T13:24:34.277Z,33.10
2022-08-03T13:27:22.440Z,35.14
2022-08-03T13:29:50.245Z,32.91
2022-08-03T13:32:18.158Z,37.29
2022-08-03T13:34:46.075Z,34.16
2022-08-03T13:37:14.147Z,33.15
2022-08-03T13:39:58.471Z,36.17
2022-08-03T13:42:28.918Z,34.64
2022-08-03T13:44:56.817Z,32.97
2022-08-03T13:47:24.677Z,32.91
2022-08-03T13:50:00.174Z,35.95
2022-08-03T13:52:31.588Z,36.77
2022-08-03T13:55:01.037Z,37.86
2022-08-03T13:58:04.029Z,37.73
2022-08-03T14:00:26.353Z,36.28
2022-08-03T14:03:02.801Z,34.70
2022-08-03T14:05:33.519Z,35.31
2022-08-03T14:08:04.286Z,33.28
2022-08-03T14:10:35.081Z,33.85
2022-08-03T14:13:02.926Z,33.51
2022-08-03T14:15:30.800Z,33.65
2022-08-03T14:17:59.108Z,35.29
2022-08-03T14:20:38.496Z,36.70
2022-08-03T14:23:07.833Z,33.12
2022-08-03T14:25:43.535Z,35.00
2022-08-03T14:28:19.640Z,32.50
2022-08-03T14:30:48.601Z,33.56
2022-08-03T14:33:16.807Z,35.00
2022-08-03T14:35:44.732Z,32.42
2022-08-03T14:38:12.544Z,34.55
2022-08-03T14:40:41.810Z,32.39
2022-08-03T14:43:09.640Z,33.80
2022-08-03T14:45:37.902Z,32.80
2022-08-03T14:50:33.249Z,34.18
2022-08-03T14:50:55.246Z,33.06
2022-08-03T14:53:23.727Z,34.73
2022-08-03T14:55:53.574Z,35.61
2022-08-03T14:58:22.399Z,35.54
2022-08-03T15:00:52.121Z,36.49
2022-08-03T15:03:23.595Z,34.99
2022-08-03T15:05:52.916Z,35.72
2022-08-03T15:08:21.221Z,36.51
2022-08-03T15:10:49.577Z,33.74
2022-08-03T15:13:19.571Z,34.39
2022-08-03T15:15:48.143Z,32.64
2022-08-03T15:18:16.008Z,33.39
2022-08-03T15:20:46.006Z,33.88
2022-08-03T15:23:15.632Z,33.76
2022-08-03T15:26:30.330Z,33.73
2022-08-03T15:28:34.195Z,34.21
2022-08-03T15:31:05.342Z,33.64
2022-08-03T15:33:33.328Z,34.89
2022-08-03T15:36:03.334Z,34.06
2022-08-03T15:38:31.290Z,34.27
2022-08-03T15:40:59.244Z,35.92
2022-08-03T15:43:27.077Z,32.27
2022-08-03T15:46:27.799Z,33.08
2022-08-03T15:48:44.112Z,33.08
2022-08-03T15:51:12.260Z,33.65
2022-08-03T15:53:40.407Z,34.50
2022-08-03T15:56:13.249Z,35.70
2022-08-03T15:59:03.318Z,34.71
2022-08-03T16:01:32.877Z,33.49
2022-08-03T16:04:00.799Z,33.13
2022-08-03T16:06:29.814Z,33.88
2022-08-03T16:09:05.331Z,34.83
2022-08-03T16:11:33.407Z,35.15
2022-08-03T16:14:13.375Z,34.80
2022-08-03T16:16:50.504Z,35.23
2022-08-03T16:19:18.335Z,35.51
2022-08-03T16:21:48.358Z,34.27
2022-08-03T16:24:27.556Z,33.87
2022-08-03T16:26:55.605Z,34.10
2022-08-03T16:29:24.020Z,34.83
2022-08-03T16:31:53.790Z,34.59
2022-08-03T16:34:22.088Z,36.26
2022-08-03T16:36:50.005Z,33.80
2022-08-03T16:39:17.926Z,35.67
2022-08-03T16:41:54.525Z,35.93
2022-08-03T16:44:30.931Z,35.05
2022-08-03T16:47:00.566Z,33.58
2022-08-03T16:49:54.781Z,33.54
2022-08-03T16:52:16.477Z,34.46
2022-08-03T16:54:50.743Z,35.35
2022-08-03T16:57:29.907Z,36.89
2022-08-03T17:00:12.015Z,34.20
2022-08-03T17:02:48.417Z,33.57
2022-08-03T17:05:16.430Z,33.75
2022-08-03T17:07:50.573Z,33.81
2022-08-03T17:10:27.054Z,34.18
2022-08-03T17:12:55.824Z,34.66
2022-08-03T17:15:38.150Z,34.67
2022-08-03T17:18:18.201Z,34.97
2022-08-03T17:20:50.951Z,36.16
2022-08-03T17:23:36.049Z,35.71
2022-08-03T17:26:11.593Z,34.84
2022-08-03T17:28:50.177Z,35.11
2022-08-03T17:31:31.259Z,35.39
2022-08-03T17:34:04.445Z,35.76
2022-08-03T17:37:02.615Z,36.02
2022-08-03T17:39:48.506Z,35.61
2022-08-03T17:42:30.614Z,35.23
2022-08-03T17:45:01.657Z,34.89
2022-08-03T17:47:42.405Z,35.59
2022-08-03T17:50:24.585Z,36.76
2022-08-03T17:53:01.737Z,36.86
2022-08-03T17:55:55.170Z,37.01
2022-08-03T17:58:41.394Z,38.22
2022-08-03T18:02:03.647Z,39.35
2022-08-03T18:04:30.083Z,39.80
2022-08-03T18:07:11.178Z,40.79
2022-08-03T18:10:06.181Z,41.47
2022-08-03T18:12:51.698Z,43.96
2022-08-03T18:15:25.344Z,45.34
2022-08-03T18:18:02.128Z,41.24
2022-08-03T18:20:41.143Z,42.08
2022-08-03T18:23:25.154Z,45.01
2022-08-03T18:26:02.306Z,39.88
2022-08-03T18:28:33.347Z,44.89
2022-08-03T18:31:05.665Z,45.37
2022-08-03T18:34:16.482Z,43.44
2022-08-03T18:36:30.179Z,46.60
2022-08-03T18:39:01.784Z,49.37
2022-08-03T18:41:33.736Z,48.65
2022-08-03T18:44:08.449Z,49.36
2022-08-03T18:46:48.812Z,51.73
2022-08-03T18:49:29.767Z,52.56
2022-08-03T18:55:02.482Z,54.25
2022-08-03T18:57:44.858Z,56.13
2022-08-03T19:00:16.599Z,55.28
2022-08-03T19:02:50.294Z,55.67
2022-08-03T19:05:21.257Z,54.72
2022-08-03T19:07:58.139Z,56.86
2022-08-03T19:10:32.067Z,58.40
2022-08-03T19:13:05.398Z,59.09
2022-08-03T19:15:51.524Z,60.00
2022-08-03T19:18:22.159Z,62.01
2022-08-03T19:20:54.732Z,61.33
2022-08-03T19:23:25.605Z,60.60
2022-08-03T19:25:55.139Z,62.99
2022-08-03T19:28:30.053Z,60.61
2022-08-03T19:31:02.555Z,62.75
2022-08-03T19:33:57.278Z,62.88
2022-08-03T19:36:27.298Z,63.91
2022-08-03T19:38:57.461Z,63.00
2022-08-03T19:41:41.855Z,64.33
2022-08-03T19:44:12.571Z,65.04
2022-08-03T19:46:53.455Z,66.60
2022-08-03T19:50:06.001Z,65.90
2022-08-03T19:52:16.685Z,66.11
2022-08-03T19:54:54.658Z,67.22
2022-08-03T19:57:27.306Z,69.66
2022-08-03T19:59:57.476Z,70.45
2022-08-03T20:02:26.223Z,69.60
2022-08-03T20:04:56.936Z,71.03
2022-08-03T20:07:25.919Z,69.61
2022-08-03T20:09:56.669Z,71.40
2022-08-03T20:12:28.875Z,72.33
2022-08-03T20:14:57.734Z,72.07
2022-08-03T20:17:55.923Z,70.77
2022-08-03T20:20:14.296Z,71.12
2022-08-03T20:22:47.675Z,74.34
2022-08-03T20:25:21.099Z,73.04
2022-08-03T20:28:07.984Z,72.75
2022-08-03T20:30:44.377Z,70.35
2022-08-03T20:33:18.926Z,71.09
2022-08-03T20:35:49.238Z,70.85
2022-08-03T20:38:17.860Z,69.35
2022-08-03T20:40:46.625Z,70.63
2022-08-03T20:43:16.012Z,69.92
2022-08-03T20:45:58.339Z,69.20
2022-08-03T20:48:29.765Z,68.89
2022-08-03T20:50:57.951Z,71.78
2022-08-03T20:53:56.850Z,70.81
2022-08-03T20:56:15.745Z,70.02
2022-08-03T20:58:50.788Z,69.17
2022-08-03T21:01:27.738Z,69.94
2022-08-03T21:04:09.442Z,70.39
2022-08-03T21:06:45.644Z,71.46
2022-08-03T21:09:25.184Z,70.43
2022-08-03T21:12:13.184Z,70.31
2022-08-03T21:13:08.290Z,53.65
2022-08-03T21:14:52.345Z,70.78
2022-08-03T21:17:40.134Z,70.76
2022-08-03T21:20:10.420Z,71.89
2022-08-03T21:22:39.345Z,70.56
2022-08-03T21:25:10.285Z,70.58
2022-08-03T21:27:38.582Z,72.01
2022-08-03T21:30:11.684Z,73.00
2022-08-03T21:32:40.738Z,72.11
2022-08-03T21:35:11.017Z,71.48
2022-08-03T21:37:39.542Z,72.66
2022-08-03T21:40:09.008Z,70.04
2022-08-03T21:42:37.020Z,73.34
2022-08-03T21:45:08.238Z,71.28
2022-08-03T21:47:38.740Z,71.21
2022-08-03T21:50:10.466Z,70.40
2022-08-03T21:52:42.740Z,71.50
2022-08-03T21:55:20.450Z,71.27
2022-08-03T21:57:54.094Z,69.75
2022-08-03T22:00:24.101Z,70.22
2022-08-03T22:02:55.471Z,69.72
2022-08-03T22:05:29.135Z,73.92
2022-08-03T22:08:13.615Z,73.98
2022-08-03T22:10:42.099Z,75.51
2022-08-03T22:13:09.941Z,76.53
2022-08-03T22:15:39.179Z,76.62
2022-08-03T22:18:07.156Z,80.31
2022-08-03T22:20:35.320Z,79.85
2022-08-03T22:23:05.379Z,77.45
2022-08-03T22:25:34.741Z,79.80
2022-08-03T22:28:06.770Z,80.51
2022-08-03T22:30:36.335Z,79.74
2022-08-03T22:33:08.352Z,79.29
2022-08-03T22:35:44.333Z,79.57
2022-08-03T22:38:16.379Z,80.10
2022-08-03T22:40:44.931Z,81.32
2022-08-03T22:43:12.906Z,80.79
2022-08-03T22:46:06.445Z,82.69
2022-08-03T22:48:35.831Z,83.08
2022-08-03T22:51:09.559Z,83.15
2022-08-03T22:53:38.054Z,85.07
2022-08-03T22:56:06.141Z,85.14
2022-08-03T22:58:34.006Z,85.25
2022-08-03T23:01:05.858Z,86.64
2022-08-03T23:04:00.228Z,86.42
2022-08-03T23:06:28.151Z,88.24
2022-08-03T23:08:56.704Z,88.38
2022-08-03T23:11:26.249Z,88.52
2022-08-03T23:13:57.643Z,89.39
2022-08-03T23:16:28.934Z,88.84
2022-08-03T23:19:16.570Z,89.92
2022-08-03T23:22:00.362Z,90.18
2022-08-03T23:24:31.175Z,90.84
2022-08-03T23:26:59.295Z,91.74
2022-08-03T23:29:27.638Z,92.55
2022-08-03T23:31:57.531Z,92.61
2022-08-03T23:34:45.881Z,92.98
2022-08-03T23:37:15.189Z,92.87
2022-08-03T23:39:45.772Z,95.30
2022-08-03T23:42:16.187Z,96.00
2022-08-03T23:44:44.676Z,95.04
2022-08-03T23:47:12.715Z,95.41
2022-08-03T23:49:44.585Z,95.92
2022-08-03T23:52:21.889Z,95.79
2022-08-03T23:55:04.163Z,95.80
2022-08-03T23:57:42.828Z,96.48
